Time;durP1;ratioP1;P1;durP2;ratioP2;P2;SDS_P1;SDS_P2;PMS_P1;PMS_P2;Temp;Humidity;BMP_temperature;BMP_pressure;BME280_temperature;BME280_humidity;BME280_pressure;Samples;Min_cycle;Max_cycle;Signal;HPM_P1;HPM_P2
2023/10/08 00:01:06;;;;;;;5.43;3.67;;;18.60;99.90;;;;;;5053794;28;20479;-77
2023/10/08 00:03:33;;;;;;;7.77;4.10;;;18.60;99.90;;;;;;5054420;28;20486;-77
2023/10/08 00:06:06;;;;;;;7.67;4.10;;;18.60;99.90;;;;;;5053738;28;20455;-78
2023/10/08 00:08:33;;;;;;;8.47;4.50;;;18.70;99.90;;;;;;5054728;28;20464;-77
2023/10/08 00:11:05;;;;;;;8.83;4.13;;;18.60;99.90;;;;;;5053873;28;20522;-77
2023/10/08 00:13:39;;;;;;;7.70;4.13;;;18.60;99.90;;;;;;5054248;28;20448;-78
2023/10/08 00:16:09;;;;;;;8.50;4.13;;;18.60;99.90;;;;;;5053763;28;20466;-77
2023/10/08 00:18:37;;;;;;;7.30;4.13;;;18.60;99.90;;;;;;5053142;28;20545;-78
2023/10/08 00:21:16;;;;;;;6.30;4.60;;;18.60;99.90;;;;;;5053573;28;20503;-77
2023/10/08 00:23:43;;;;;;;7.10;4.17;;;18.70;99.90;;;;;;5054015;28;20483;-77
2023/10/08 00:26:10;;;;;;;7.97;3.90;;;18.70;99.90;;;;;;5054140;28;20517;-77
2023/10/08 00:28:40;;;;;;;8.53;3.97;;;18.60;99.90;;;;;;5053117;28;20467;-78
2023/10/08 00:31:11;;;;;;;6.43;4.30;;;18.60;99.90;;;;;;5055465;28;20567;-77
2023/10/08 00:33:37;;;;;;;6.57;4.63;;;18.50;99.90;;;;;;5053803;28;20459;-77
2023/10/08 00:36:17;;;;;;;6.77;4.10;;;18.50;99.90;;;;;;5054617;28;20459;-77
2023/10/08 00:38:44;;;;;;;8.50;4.83;;;18.40;99.90;;;;;;5053011;28;20451;-77
2023/10/08 00:41:14;;;;;;;7.63;4.50;;;18.40;99.90;;;;;;5054012;28;20486;-77
2023/10/08 00:43:44;;;;;;;7.70;3.80;;;18.40;99.90;;;;;;5055343;28;20487;-77
2023/10/08 00:46:18;;;;;;;5.80;4.13;;;18.40;99.90;;;;;;5055984;28;20467;-77
2023/10/08 00:48:46;;;;;;;5.77;3.93;;;18.40;99.90;;;;;;5054180;28;20455;-77
2023/10/08 00:51:25;;;;;;;7.50;4.33;;;18.50;99.90;;;;;;5055053;28;20502;-78
2023/10/08 00:53:57;;;;;;;7.30;3.70;;;18.40;99.90;;;;;;5054240;28;20454;-77
2023/10/08 00:56:27;;;;;;;7.50;4.20;;;18.40;99.90;;;;;;5054506;28;20873;-77
2023/10/08 00:58:59;;;;;;;9.53;4.57;;;18.40;99.90;;;;;;5053780;28;20478;-77
2023/10/08 01:01:26;;;;;;;6.70;3.90;;;18.40;99.90;;;;;;5056693;28;20479;-77
2023/10/08 01:03:54;;;;;;;8.77;4.90;;;18.30;99.90;;;;;;5054513;28;20744;-77
2023/10/08 01:06:23;;;;;;;8.80;3.70;;;18.30;99.90;;;;;;5055630;28;20456;-77
2023/10/08 01:08:54;;;;;;;9.10;4.60;;;18.40;99.90;;;;;;5054878;28;20852;-76
2023/10/08 01:11:31;;;;;;;5.63;4.10;;;18.40;99.90;;;;;;5054919;28;20476;-77
2023/10/08 01:14:00;;;;;;;5.80;3.87;;;18.40;99.90;;;;;;5055938;28;20452;-77
2023/10/08 01:16:27;;;;;;;6.80;4.30;;;18.40;99.90;;;;;;5055134;28;21021;-78
2023/10/08 01:18:54;;;;;;;5.37;3.60;;;18.30;99.90;;;;;;5053981;28;20455;-77
2023/10/08 01:21:33;;;;;;;8.13;3.90;;;18.30;99.90;;;;;;5054613;28;20485;-76
2023/10/08 01:24:05;;;;;;;8.87;4.40;;;18.30;99.90;;;;;;5053983;28;20484;-78
2023/10/08 01:26:33;;;;;;;7.30;3.77;;;18.30;99.90;;;;;;5053834;28;20444;-77
2023/10/08 01:29:06;;;;;;;8.23;4.50;;;18.20;99.90;;;;;;5053515;28;20452;-77
2023/10/08 01:31:33;;;;;;;6.03;3.70;;;18.20;99.90;;;;;;5058629;28;20940;-77
2023/10/08 01:34:04;;;;;;;6.50;3.83;;;18.20;99.90;;;;;;5057286;28;20972;-77
2023/10/08 01:36:31;;;;;;;9.10;4.33;;;18.20;99.90;;;;;;5057834;28;20456;-77
2023/10/08 01:39:01;;;;;;;5.70;3.87;;;18.20;99.90;;;;;;5056459;28;20981;-77
2023/10/08 01:41:30;;;;;;;8.60;4.70;;;18.30;99.90;;;;;;5057167;28;20471;-77
2023/10/08 01:43:58;;;;;;;7.83;3.97;;;18.30;99.90;;;;;;5056311;28;20502;-77
2023/10/08 01:46:27;;;;;;;8.53;4.23;;;18.40;99.90;;;;;;5055990;28;20497;-77
2023/10/08 01:49:02;;;;;;;9.03;4.10;;;18.40;99.90;;;;;;5055403;28;20546;-77
2023/10/08 01:51:37;;;;;;;7.53;3.80;;;18.40;99.90;;;;;;5056604;28;20512;-77
2023/10/08 01:54:10;;;;;;;8.77;4.43;;;18.40;99.90;;;;;;5057431;28;20832;-77
2023/10/08 01:56:42;;;;;;;8.83;4.87;;;18.40;99.90;;;;;;5057901;28;20451;-76
2023/10/08 01:59:09;;;;;;;7.27;4.20;;;18.30;99.90;;;;;;5055388;28;20455;-78
2023/10/08 02:01:38;;;;;;;10.03;4.93;;;18.30;99.90;;;;;;5056976;28;20550;-77
2023/10/08 02:04:06;;;;;;;5.67;4.00;;;18.30;99.90;;;;;;5055825;28;20537;-77
2023/10/08 02:06:33;;;;;;;9.47;4.53;;;18.20;99.90;;;;;;5055109;28;20595;-76
2023/10/08 02:09:05;;;;;;;8.17;4.30;;;18.20;99.90;;;;;;5056061;28;20499;-77
2023/10/08 02:11:32;;;;;;;8.70;4.80;;;18.20;99.90;;;;;;5056912;28;21048;-78
2023/10/08 02:14:01;;;;;;;9.67;4.70;;;18.20;99.90;;;;;;5057294;28;20529;-77
2023/10/08 02:16:28;;;;;;;10.93;4.43;;;18.20;99.90;;;;;;5057232;28;20455;-77
2023/10/08 02:18:55;;;;;;;7.40;4.30;;;18.20;99.90;;;;;;5055880;28;20459;-77
2023/10/08 02:21:22;;;;;;;8.80;4.40;;;18.20;99.90;;;;;;5057105;28;20479;-77
2023/10/08 02:23:49;;;;;;;8.10;5.30;;;18.20;99.90;;;;;;5057021;28;20490;-78
2023/10/08 02:26:15;;;;;;;6.63;4.30;;;18.20;99.90;;;;;;5056496;28;20550;-78
2023/10/08 02:28:42;;;;;;;8.20;4.60;;;18.10;99.90;;;;;;5054920;28;20460;-77
2023/10/08 02:31:11;;;;;;;9.33;4.87;;;18.10;99.90;;;;;;5056499;28;20471;-77
2023/10/08 02:33:38;;;;;;;7.60;4.30;;;18.20;99.90;;;;;;5054139;28;20466;-77
2023/10/08 02:36:05;;;;;;;11.90;5.30;;;18.20;99.90;;;;;;5056996;28;20939;-77
2023/10/08 02:38:37;;;;;;;7.10;4.50;;;18.10;99.90;;;;;;5054865;28;20481;-77
2023/10/08 02:41:06;;;;;;;7.47;4.70;;;18.20;99.90;;;;;;5056363;28;20557;-77
2023/10/08 02:43:34;;;;;;;8.13;5.47;;;18.10;99.90;;;;;;5057122;28;20490;-77
2023/10/08 02:46:00;;;;;;;7.80;4.80;;;18.10;99.90;;;;;;5057010;28;20459;-78
2023/10/08 02:48:29;;;;;;;8.57;4.57;;;18.10;99.90;;;;;;5056489;28;20520;-78
2023/10/08 02:51:06;;;;;;;8.93;4.80;;;18.10;99.90;;;;;;5057062;28;20490;-78
2023/10/08 02:53:33;;;;;;;8.93;4.73;;;18.10;99.90;;;;;;5058574;28;20780;-77
2023/10/08 02:56:00;;;;;;;11.20;6.00;;;18.10;99.90;;;;;;5058774;28;20566;-77
2023/10/08 02:58:27;;;;;;;6.77;4.30;;;18.00;99.90;;;;;;5058188;28;20458;-77
2023/10/08 03:00:54;;;;;;;15.33;5.10;;;18.10;99.90;;;;;;5056947;28;20498;-77
2023/10/08 03:03:24;;;;;;;9.83;4.70;;;18.10;99.90;;;;;;5057686;28;20452;-77
2023/10/08 03:05:56;;;;;;;9.43;4.20;;;18.10;99.90;;;;;;5057930;28;20499;-77
2023/10/08 03:08:23;;;;;;;9.63;5.30;;;18.10;99.90;;;;;;5061173;28;20463;-78
2023/10/08 03:10:55;;;;;;;14.07;4.73;;;18.20;99.90;;;;;;5067124;28;20723;-77
2023/10/08 03:13:22;;;;;;;7.57;4.30;;;18.10;99.90;;;;;;5067227;28;20458;-77
2023/10/08 03:16:07;;;;;;;9.70;4.83;;;18.10;99.90;;;;;;5058190;28;20456;-77
2023/10/08 03:18:36;;;;;;;10.10;5.30;;;18.00;99.90;;;;;;5055795;28;20455;-77
2023/10/08 03:21:05;;;;;;;11.73;4.90;;;18.10;99.90;;;;;;5056085;28;20480;-78
2023/10/08 03:23:34;;;;;;;8.63;4.87;;;17.90;99.90;;;;;;5056208;28;20450;-78
2023/10/08 03:26:10;;;;;;;9.23;4.70;;;18.00;99.90;;;;;;5056836;28;20505;-77
2023/10/08 03:28:37;;;;;;;10.67;4.97;;;18.00;99.90;;;;;;5056433;28;20536;-78
2023/10/08 03:31:05;;;;;;;7.50;4.40;;;18.00;99.90;;;;;;5055771;28;20471;-78
2023/10/08 03:33:34;;;;;;;7.30;4.80;;;18.00;99.90;;;;;;5055904;28;20485;-77
2023/10/08 03:36:14;;;;;;;8.70;4.70;;;18.00;99.90;;;;;;5054896;28;20447;-77
2023/10/08 03:38:50;;;;;;;10.60;4.40;;;18.00;99.90;;;;;;5054608;28;20456;-78
2023/10/08 03:41:20;;;;;;;9.33;5.20;;;18.00;99.90;;;;;;5055104;28;20475;-77
2023/10/08 03:43:56;;;;;;;11.00;5.07;;;18.00;99.90;;;;;;5056569;28;20541;-78
2023/10/08 03:46:24;;;;;;;7.23;4.80;;;18.00;99.90;;;;;;5047398;28;20451;-78
2023/10/08 03:48:52;;;;;;;12.33;5.30;;;18.00;99.90;;;;;;5053904;28;20856;-77
2023/10/08 03:51:21;;;;;;;8.40;4.37;;;18.00;99.90;;;;;;5054846;28;20975;-78
2023/10/08 03:53:58;;;;;;;13.13;5.27;;;17.90;99.90;;;;;;5054727;28;20455;-78
2023/10/08 03:56:29;;;;;;;10.03;4.60;;;17.90;99.90;;;;;;5048089;28;20535;-78
2023/10/08 03:59:00;;;;;;;8.80;4.93;;;17.90;99.90;;;;;;5055214;28;20446;-78
2023/10/08 04:01:31;;;;;;;7.13;4.40;;;17.90;99.90;;;;;;5056158;28;20479;-77
2023/10/08 04:04:01;;;;;;;12.33;5.13;;;17.90;99.90;;;;;;5056832;28;20448;-77
2023/10/08 04:06:30;;;;;;;8.60;4.30;;;17.90;99.90;;;;;;5055338;28;20451;-77
2023/10/08 04:09:11;;;;;;;8.07;4.33;;;17.90;99.90;;;;;;5054097;28;20471;-77
2023/10/08 04:11:51;;;;;;;9.90;5.07;;;17.90;99.90;;;;;;5059820;28;20479;-77
2023/10/08 04:14:19;;;;;;;8.50;4.60;;;17.90;99.90;;;;;;5059510;28;20463;-77
2023/10/08 04:16:46;;;;;;;9.90;4.57;;;17.90;99.90;;;;;;5058452;28;20514;-77
2023/10/08 04:19:18;;;;;;;9.63;4.77;;;17.80;99.90;;;;;;5054359;28;20661;-77
2023/10/08 04:21:53;;;;;;;9.57;4.53;;;17.80;99.90;;;;;;5055278;28;20502;-77
2023/10/08 04:24:25;;;;;;;11.27;5.40;;;17.80;99.90;;;;;;5054437;28;20834;-77
2023/10/08 04:26:54;;;;;;;7.20;4.10;;;17.80;99.90;;;;;;5054906;28;20799;-77
2023/10/08 04:29:22;;;;;;;6.00;3.93;;;17.80;99.90;;;;;;5054023;28;20459;-77
2023/10/08 04:32:00;;;;;;;9.83;4.30;;;17.80;99.90;;;;;;5054570;28;20482;-77
2023/10/08 04:34:28;;;;;;;8.23;4.50;;;17.80;99.90;;;;;;5054965;28;20455;-77
2023/10/08 04:37:00;;;;;;;6.90;4.00;;;17.80;99.90;;;;;;5054141;28;20462;-75
2023/10/08 04:39:32;;;;;;;7.30;5.10;;;17.70;99.90;;;;;;5053326;28;20447;-78
2023/10/08 04:42:05;;;;;;;8.20;4.50;;;17.70;99.90;;;;;;5053996;28;20486;-77
2023/10/08 04:44:33;;;;;;;12.60;4.40;;;17.80;99.90;;;;;;5055525;28;20482;-77
2023/10/08 04:47:04;;;;;;;8.77;4.63;;;17.80;99.90;;;;;;5055222;28;20455;-78
2023/10/08 04:49:32;;;;;;;7.53;4.73;;;17.80;99.90;;;;;;5053379;28;20969;-77
2023/10/08 04:52:05;;;;;;;9.63;5.00;;;17.70;99.90;;;;;;5053651;28;20894;-77
2023/10/08 04:54:32;;;;;;;10.03;4.37;;;17.70;99.90;;;;;;5051681;28;20455;-77
2023/10/08 04:57:00;;;;;;;7.07;4.13;;;17.60;99.90;;;;;;5051463;28;20944;-77
2023/10/08 04:59:33;;;;;;;10.90;4.67;;;17.70;99.90;;;;;;5051499;28;20492;-76
2023/10/08 05:02:19;;;;;;;8.80;4.50;;;17.70;99.90;;;;;;5051345;28;20476;-77
2023/10/08 05:04:56;;;;;;;9.77;4.53;;;17.70;99.90;;;;;;5053509;28;20494;-77
2023/10/08 05:10:31;;;;;;;9.47;4.87;;;17.60;99.90;;;;;;5054737;28;20454;-76
2023/10/08 05:13:14;;;;;;;7.37;4.33;;;17.60;99.90;;;;;;5055283;28;20902;-77
2023/10/08 05:15:49;;;;;;;7.77;4.40;;;17.60;99.90;;;;;;5055641;28;20522;-76
2023/10/08 05:18:23;;;;;;;7.27;4.93;;;17.60;99.90;;;;;;5055219;28;20477;-76
2023/10/08 05:21:02;;;;;;;11.80;5.00;;;17.50;99.90;;;;;;5057564;28;20913;-78
2023/10/08 05:26:20;;;;;;;10.10;4.30;;;17.50;99.90;;;;;;5047196;28;20498;-77
2023/10/08 05:29:00;;;;;;;8.90;4.77;;;17.50;99.90;;;;;;5055525;28;20469;-77
2023/10/08 05:31:46;;;;;;;9.37;4.23;;;17.40;99.90;;;;;;5056299;28;20478;-77
2023/10/08 05:34:18;;;;;;;10.50;4.90;;;17.50;99.90;;;;;;5057375;28;20506;-77
2023/10/08 05:37:11;;;;;;;8.27;5.27;;;17.40;99.90;;;;;;5056856;28;20495;-77
2023/10/08 05:39:42;;;;;;;8.30;5.13;;;17.40;99.90;;;;;;5058111;28;20454;-77
2023/10/08 05:42:16;;;;;;;10.77;4.73;;;17.40;99.90;;;;;;5057875;28;20859;-77
2023/10/08 05:44:46;;;;;;;6.97;4.13;;;17.20;99.90;;;;;;5058396;28;20482;-77
2023/10/08 05:47:41;;;;;;;11.13;5.43;;;17.30;99.90;;;;;;5057955;28;20536;-77
2023/10/08 05:53:01;;;;;;;8.57;4.70;;;17.30;99.90;;;;;;5055575;28;20533;-77
2023/10/08 05:55:34;;;;;;;7.73;4.33;;;17.20;99.90;;;;;;5055793;28;20447;-77
2023/10/08 05:58:24;;;;;;;10.77;5.00;;;17.20;99.90;;;;;;5055120;28;20537;-77
2023/10/08 06:01:08;;;;;;;7.60;4.47;;;17.20;99.90;;;;;;5056233;28;20468;-77
2023/10/08 06:03:46;;;;;;;13.60;5.53;;;17.30;99.90;;;;;;5055614;28;21005;-77
2023/10/08 06:06:35;;;;;;;9.97;5.20;;;17.30;99.90;;;;;;5056480;28;20495;-77
2023/10/08 06:09:34;;;;;;;13.03;4.83;;;17.30;99.90;;;;;;5054685;28;20480;-77
2023/10/08 06:12:12;;;;;;;8.27;4.67;;;17.40;99.90;;;;;;5056511;28;20501;-77
2023/10/08 06:17:55;;;;;;;9.97;4.57;;;17.40;99.90;;;;;;5043868;28;20436;-77
2023/10/08 06:20:25;;;;;;;6.00;4.00;;;17.40;99.90;;;;;;5054695;28;21055;-76
2023/10/08 06:22:58;;;;;;;11.40;5.20;;;17.40;99.90;;;;;;5052763;28;20489;-77
2023/10/08 06:25:27;;;;;;;10.10;3.70;;;17.40;99.90;;;;;;5055418;28;20506;-77
2023/10/08 06:27:57;;;;;;;10.90;3.80;;;17.40;99.90;;;;;;5054403;28;20451;-77
2023/10/08 06:30:28;;;;;;;14.17;5.00;;;17.30;99.90;;;;;;5055226;28;20486;-77
2023/10/08 06:32:56;;;;;;;9.40;5.00;;;17.30;99.90;;;;;;5057669;28;20518;-77
2023/10/08 06:35:25;;;;;;;14.07;5.13;;;17.30;99.90;;;;;;5055396;28;20530;-76
2023/10/08 06:37:55;;;;;;;10.93;4.83;;;17.40;99.90;;;;;;5054118;28;20485;-77
2023/10/08 06:43:21;;;;;;;11.40;5.93;;;17.40;99.90;;;;;;5018597;28;20529;-77
2023/10/08 06:45:52;;;;;;;7.53;4.93;;;17.30;99.90;;;;;;5055585;28;20533;-76
2023/10/08 06:48:21;;;;;;;8.87;4.10;;;17.30;99.90;;;;;;5053689;28;20508;-76
2023/10/08 06:50:49;;;;;;;7.30;4.70;;;17.30;99.90;;;;;;5051380;28;20988;-76
2023/10/08 06:53:17;;;;;;;9.73;5.67;;;17.30;99.90;;;;;;5054993;28;20539;-77
2023/10/08 06:55:47;;;;;;;16.03;5.00;;;17.30;99.90;;;;;;5055382;28;20455;-77
2023/10/08 06:58:14;;;;;;;12.13;5.23;;;17.20;99.90;;;;;;5053876;28;20463;-77
2023/10/08 07:00:48;;;;;;;9.00;4.97;;;17.20;99.90;;;;;;5054665;28;21101;-77
2023/10/08 07:03:17;;;;;;;9.90;5.00;;;17.20;99.90;;;;;;5054884;28;20544;-76
2023/10/08 07:05:53;;;;;;;9.70;5.70;;;17.20;99.90;;;;;;5054122;28;20578;-76
2023/10/08 07:08:23;;;;;;;11.53;4.90;;;17.30;99.90;;;;;;5052365;28;20469;-77
2023/10/08 07:10:50;;;;;;;7.80;4.90;;;17.20;99.90;;;;;;5054959;28;20538;-77
2023/10/08 07:13:17;;;;;;;7.93;5.60;;;17.20;99.90;;;;;;5055311;28;20544;-78
2023/10/08 07:15:45;;;;;;;9.63;5.03;;;17.10;99.90;;;;;;5055274;28;20455;-77
2023/10/08 07:18:14;;;;;;;12.60;6.33;;;17.20;99.90;;;;;;5055213;28;20508;-78
2023/10/08 07:20:45;;;;;;;10.43;5.97;;;17.20;99.90;;;;;;5056824;28;20473;-77
2023/10/08 07:23:24;;;;;;;10.80;5.87;;;17.30;99.90;;;;;;5054984;28;20449;-77
2023/10/08 07:26:01;;;;;;;10.00;6.03;;;17.20;99.90;;;;;;5053607;28;20485;-77
2023/10/08 07:28:30;;;;;;;11.70;5.80;;;17.30;99.90;;;;;;5053711;28;20472;-77
2023/10/08 07:30:58;;;;;;;9.67;6.33;;;17.30;99.90;;;;;;5054421;28;20503;-77
2023/10/08 07:33:32;;;;;;;11.70;5.70;;;17.30;99.90;;;;;;5054498;28;20470;-77
2023/10/08 07:36:11;;;;;;;7.73;5.07;;;17.30;99.90;;;;;;5056704;28;20805;-77
2023/10/08 07:38:39;;;;;;;8.60;5.03;;;17.30;99.90;;;;;;5053348;28;20453;-77
2023/10/08 07:41:06;;;;;;;5.93;4.67;;;17.20;99.90;;;;;;5054757;28;20469;-77
2023/10/08 07:43:33;;;;;;;4.90;4.30;;;17.10;99.90;;;;;;5054726;28;20454;-77
2023/10/08 07:46:01;;;;;;;8.50;3.80;;;17.00;99.90;;;;;;5054717;28;20487;-77
2023/10/08 07:48:29;;;;;;;5.90;3.90;;;17.00;99.90;;;;;;5053566;28;20451;-77
2023/10/08 07:50:56;;;;;;;6.83;3.67;;;17.00;99.90;;;;;;5053560;28;20477;-77
2023/10/08 07:53:24;;;;;;;6.53;2.97;;;17.00;99.90;;;;;;5053521;28;20971;-77
2023/10/08 07:55:51;;;;;;;4.80;3.50;;;16.90;99.90;;;;;;5054927;28;20457;-77
2023/10/08 07:58:19;;;;;;;7.23;3.60;;;16.80;99.90;;;;;;5052407;28;20460;-77
2023/10/08 08:00:52;;;;;;;4.97;3.27;;;16.80;99.90;;;;;;5054342;28;21008;-77
2023/10/08 08:03:24;;;;;;;5.77;3.50;;;16.80;99.90;;;;;;5054291;28;20436;-76
2023/10/08 08:05:52;;;;;;;5.77;3.43;;;16.80;99.90;;;;;;5050930;28;20489;-77
2023/10/08 08:08:27;;;;;;;7.23;3.90;;;16.70;99.90;;;;;;5053685;28;20532;-77
2023/10/08 08:10:58;;;;;;;9.20;4.40;;;16.70;99.90;;;;;;5053933;28;20987;-77
2023/10/08 08:13:27;;;;;;;9.83;5.27;;;16.70;99.90;;;;;;5047415;28;20463;-77
2023/10/08 08:15:58;;;;;;;7.50;5.43;;;16.60;99.90;;;;;;5052816;28;20454;-77
2023/10/08 08:18:32;;;;;;;9.50;6.40;;;16.60;99.90;;;;;;5050917;28;20948;-77
2023/10/08 08:21:02;;;;;;;12.23;7.80;;;16.50;99.90;;;;;;5053093;28;20497;-77
2023/10/08 08:23:30;;;;;;;6.10;5.50;;;16.40;99.90;;;;;;5053377;28;20459;-76
2023/10/08 08:26:06;;;;;;;15.50;9.27;;;16.40;99.90;;;;;;5055793;28;20493;-77
2023/10/08 08:28:33;;;;;;;16.40;13.00;;;16.40;99.90;;;;;;5054101;28;20826;-76
2023/10/08 08:31:04;;;;;;;17.80;14.20;;;16.30;99.90;;;;;;5047963;28;20468;-77
2023/10/08 08:33:52;;;;;;;19.30;15.03;;;16.30;99.90;;;;;;5051368;28;20527;-77
2023/10/08 08:36:19;;;;;;;19.70;15.60;;;16.20;99.90;;;;;;5048996;28;20455;-77
2023/10/08 08:38:47;;;;;;;13.53;12.00;;;16.20;99.90;;;;;;5047615;28;20448;-77
2023/10/08 08:41:17;;;;;;;10.00;8.80;;;16.10;99.90;;;;;;5054052;28;20484;-76
2023/10/08 08:43:45;;;;;;;9.77;6.70;;;16.10;99.90;;;;;;5050775;28;20483;-77
2023/10/08 08:46:13;;;;;;;9.00;6.30;;;16.10;99.90;;;;;;5055211;28;20480;-77
2023/10/08 08:48:44;;;;;;;9.93;7.43;;;16.10;99.90;;;;;;5063522;28;20457;-77
2023/10/08 08:51:12;;;;;;;9.80;8.80;;;16.10;99.90;;;;;;5054111;28;20475;-77
2023/10/08 08:53:39;;;;;;;8.93;8.03;;;16.10;99.90;;;;;;5053472;28;20546;-77
2023/10/08 08:56:09;;;;;;;12.83;7.43;;;16.10;99.90;;;;;;5053116;28;20948;-77
2023/10/08 08:58:36;;;;;;;8.27;6.90;;;16.10;99.90;;;;;;5052030;28;20458;-77
2023/10/08 09:01:06;;;;;;;8.07;7.30;;;16.10;99.90;;;;;;5053369;28;20544;-77
2023/10/08 09:03:32;;;;;;;8.63;7.73;;;16.10;99.90;;;;;;5053074;28;20461;-78
2023/10/08 09:06:01;;;;;;;9.10;8.10;;;16.10;99.90;;;;;;5052722;28;20484;-77
2023/10/08 09:08:31;;;;;;;9.10;8.20;;;16.00;99.90;;;;;;5051851;28;20522;-77
2023/10/08 09:11:00;;;;;;;9.70;7.87;;;16.00;99.90;;;;;;5053216;28;20483;-76
2023/10/08 09:13:28;;;;;;;11.53;8.93;;;16.10;99.90;;;;;;5053663;28;20452;-77
2023/10/08 09:15:58;;;;;;;10.30;8.80;;;16.00;99.90;;;;;;5052148;28;20548;-78
2023/10/08 09:18:27;;;;;;;9.50;7.97;;;16.00;99.90;;;;;;5049465;28;20457;-77
2023/10/08 09:20:55;;;;;;;10.10;6.97;;;16.00;99.90;;;;;;5050954;28;20475;-77
2023/10/08 09:23:25;;;;;;;10.50;6.70;;;16.00;99.90;;;;;;5052843;28;20444;-77
2023/10/08 09:26:01;;;;;;;11.47;7.37;;;15.90;99.90;;;;;;5050459;28;20487;-77
2023/10/08 09:28:28;;;;;;;8.13;6.60;;;15.90;99.90;;;;;;5050289;28;20952;-76
2023/10/08 09:30:58;;;;;;;8.87;5.83;;;15.80;99.90;;;;;;5051453;28;21004;-77
2023/10/08 09:33:25;;;;;;;12.20;6.30;;;15.80;99.90;;;;;;5050682;28;20470;-77
2023/10/08 09:35:55;;;;;;;5.50;4.67;;;15.70;99.90;;;;;;5056188;28;20447;-77
2023/10/08 09:38:23;;;;;;;4.73;4.23;;;15.70;99.90;;;;;;5056332;28;20490;-77
2023/10/08 09:40:53;;;;;;;5.87;5.00;;;15.70;99.90;;;;;;5058331;28;20479;-77
2023/10/08 09:43:20;;;;;;;4.57;4.00;;;15.50;99.90;;;;;;5061450;28;20480;-77
2023/10/08 09:45:52;;;;;;;6.20;4.90;;;15.50;99.90;;;;;;5061022;28;21019;-76
2023/10/08 09:48:23;;;;;;;5.77;3.53;;;15.50;99.90;;;;;;5054113;28;20522;-78
2023/10/08 09:50:54;;;;;;;4.70;2.40;;;15.50;99.90;;;;;;5059922;28;20546;-78
2023/10/08 09:53:29;;;;;;;5.80;3.10;;;15.50;99.90;;;;;;5059921;28;20444;-77
2023/10/08 09:55:57;;;;;;;3.83;2.07;;;15.50;99.90;;;;;;5066617;28;20447;-78
2023/10/08 09:58:26;;;;;;;2.67;1.70;;;15.50;99.90;;;;;;5066853;28;20990;-77
2023/10/08 10:00:57;;;;;;;2.80;1.90;;;15.60;99.90;;;;;;5066776;28;20563;-78
2023/10/08 10:03:25;;;;;;;2.97;2.00;;;15.60;99.90;;;;;;5070048;28;20469;-78
2023/10/08 10:05:54;;;;;;;3.20;1.30;;;15.80;99.90;;;;;;5069619;28;20464;-78
2023/10/08 10:08:25;;;;;;;2.10;1.00;;;15.60;99.90;;;;;;5070648;28;20459;-77
2023/10/08 10:11:00;;;;;;;2.10;1.20;;;15.70;99.90;;;;;;5071010;28;20478;-79
2023/10/08 10:13:29;;;;;;;2.77;1.50;;;15.80;99.90;;;;;;5059578;28;20486;-78
2023/10/08 10:15:58;;;;;;;2.37;1.00;;;15.80;99.90;;;;;;5061425;28;20448;-78
2023/10/08 10:18:30;;;;;;;7.53;1.17;;;15.80;99.90;;;;;;5064657;28;20451;-77
2023/10/08 10:21:00;;;;;;;3.47;0.93;;;15.80;99.90;;;;;;5064118;28;20460;-79
2023/10/08 10:23:37;;;;;;;3.30;1.10;;;15.90;99.90;;;;;;5065435;28;20447;-77
2023/10/08 10:26:09;;;;;;;2.00;1.00;;;15.80;99.90;;;;;;5065561;28;20456;-78
2023/10/08 10:28:37;;;;;;;2.67;1.10;;;15.80;99.90;;;;;;5065921;28;20475;-78
2023/10/08 10:31:04;;;;;;;2.50;0.90;;;15.70;99.90;;;;;;5067817;28;20472;-77
2023/10/08 10:33:32;;;;;;;2.30;1.00;;;15.70;99.90;;;;;;5072479;28;20454;-78
2023/10/08 10:36:02;;;;;;;2.33;0.90;;;15.70;99.90;;;;;;5069443;28;20498;-77
2023/10/08 10:38:29;;;;;;;2.93;1.10;;;15.70;99.90;;;;;;5070519;28;20445;-76
2023/10/08 10:40:59;;;;;;;2.47;0.90;;;15.60;99.90;;;;;;5065010;28;20475;-76
2023/10/08 10:43:33;;;;;;;3.23;0.97;;;15.70;99.90;;;;;;5068651;28;20480;-77
2023/10/08 10:46:19;;;;;;;2.63;0.83;;;15.80;99.90;;;;;;5068981;28;20621;-78
2023/10/08 10:48:57;;;;;;;3.73;1.07;;;15.80;99.90;;;;;;5069334;28;20470;-77
2023/10/08 10:51:25;;;;;;;2.60;0.97;;;15.80;99.90;;;;;;5066312;28;20474;-78
2023/10/08 10:54:03;;;;;;;1.70;1.07;;;15.80;99.90;;;;;;5060652;28;20454;-77
2023/10/08 10:56:29;;;;;;;2.57;1.20;;;15.70;99.90;;;;;;5066947;28;20448;-77
2023/10/08 10:59:06;;;;;;;3.00;0.90;;;15.80;99.90;;;;;;5069142;28;20445;-78
2023/10/08 11:01:44;;;;;;;2.63;0.90;;;15.70;99.90;;;;;;5071468;28;20897;-77
2023/10/08 11:04:15;;;;;;;2.27;1.00;;;15.60;99.90;;;;;;5072668;28;20442;-77
2023/10/08 11:06:44;;;;;;;2.43;0.90;;;15.70;99.90;;;;;;5070543;28;20479;-78
2023/10/08 11:09:15;;;;;;;3.07;0.90;;;15.80;99.90;;;;;;5070102;28;20467;-77
2023/10/08 11:11:44;;;;;;;2.73;0.93;;;15.80;99.90;;;;;;5054430;28;20472;-78
2023/10/08 11:14:15;;;;;;;2.47;1.17;;;15.90;99.90;;;;;;5065080;28;20467;-77
2023/10/08 11:16:44;;;;;;;3.10;1.30;;;16.00;99.90;;;;;;5061668;28;20520;-78
2023/10/08 11:19:15;;;;;;;1.90;0.90;;;16.00;99.90;;;;;;5054876;28;20449;-77
2023/10/08 11:21:53;;;;;;;3.60;1.10;;;16.20;99.90;;;;;;5063656;28;20552;-77
2023/10/08 11:24:33;;;;;;;6.53;1.40;;;16.30;99.90;;;;;;5055745;28;20452;-78
2023/10/08 11:27:15;;;;;;;6.77;1.43;;;16.20;99.90;;;;;;5052893;28;21022;-77
2023/10/08 11:29:46;;;;;;;2.33;1.10;;;16.30;99.90;;;;;;5055182;28;20498;-77
2023/10/08 11:32:15;;;;;;;4.30;1.03;;;16.30;99.90;;;;;;5061964;28;20472;-77
2023/10/08 11:34:42;;;;;;;2.43;0.83;;;16.30;99.90;;;;;;5061043;28;20479;-77
2023/10/08 11:37:20;;;;;;;2.73;0.93;;;16.30;99.90;;;;;;5065812;28;20455;-77
2023/10/08 11:39:48;;;;;;;5.10;0.90;;;16.20;99.90;;;;;;5063387;28;20463;-77
2023/10/08 11:42:40;;;;;;;1.93;0.70;;;16.20;99.90;;;;;;5067207;28;20467;-78
2023/10/08 11:47:55;;;;;;;2.97;0.90;;;16.30;99.90;;;;;;5063524;28;21004;-76
2023/10/08 11:50:30;;;;;;;2.90;0.97;;;16.40;99.90;;;;;;5065750;28;20976;-77
2023/10/08 11:53:01;;;;;;;3.07;1.03;;;16.40;99.90;;;;;;5062464;28;20439;-76
2023/10/08 11:55:28;;;;;;;3.70;0.90;;;16.40;99.90;;;;;;5058986;28;20452;-77
2023/10/08 11:57:57;;;;;;;2.40;0.80;;;16.40;99.90;;;;;;5057992;28;20456;-77
2023/10/08 12:00:26;;;;;;;1.73;0.80;;;16.60;99.90;;;;;;5052961;28;20529;-77
2023/10/08 12:02:54;;;;;;;1.80;1.10;;;16.70;99.90;;;;;;5056530;28;20829;-77
2023/10/08 12:05:23;;;;;;;4.13;0.80;;;16.70;99.90;;;;;;5059309;28;20457;-78
2023/10/08 12:07:52;;;;;;;4.13;0.90;;;16.70;99.90;;;;;;5054776;28;20549;-76
2023/10/08 12:10:22;;;;;;;2.03;0.80;;;16.70;99.90;;;;;;5058880;28;20487;-78
2023/10/08 12:12:49;;;;;;;3.17;1.00;;;16.70;99.90;;;;;;5059206;28;20464;-77
2023/10/08 12:15:19;;;;;;;4.50;1.10;;;16.80;99.90;;;;;;5062587;28;20525;-78
2023/10/08 12:18:08;;;;;;;3.60;1.23;;;16.70;99.90;;;;;;5057461;28;20557;-77
2023/10/08 12:20:37;;;;;;;4.00;0.90;;;16.80;99.90;;;;;;5064359;28;20925;-77
2023/10/08 12:23:04;;;;;;;2.27;0.80;;;16.70;99.90;;;;;;5058865;28;20456;-77
2023/10/08 12:25:32;;;;;;;3.17;0.90;;;16.80;99.90;;;;;;5054556;28;20451;-77
2023/10/08 12:28:02;;;;;;;2.47;0.80;;;16.80;99.90;;;;;;5059156;28;20476;-77
2023/10/08 12:30:31;;;;;;;3.50;0.80;;;16.80;99.90;;;;;;5058008;28;20479;-77
2023/10/08 12:32:59;;;;;;;1.70;0.70;;;16.70;99.90;;;;;;5056828;28;20956;-77
2023/10/08 12:35:29;;;;;;;2.53;0.90;;;16.80;99.90;;;;;;5059307;28;20547;-78
2023/10/08 12:37:56;;;;;;;3.10;0.90;;;16.90;99.90;;;;;;5058226;28;20461;-77
2023/10/08 12:40:23;;;;;;;3.30;1.00;;;16.90;99.90;;;;;;5059081;28;20486;-78
2023/10/08 12:42:51;;;;;;;3.93;0.90;;;17.10;99.90;;;;;;5059513;28;20523;-77
2023/10/08 12:45:20;;;;;;;2.00;0.80;;;17.00;99.90;;;;;;5056720;28;20450;-77
2023/10/08 12:47:52;;;;;;;2.10;0.90;;;17.00;99.90;;;;;;5057353;28;20899;-77
2023/10/08 12:50:29;;;;;;;1.90;0.80;;;16.90;99.90;;;;;;5058019;28;20459;-77
2023/10/08 12:52:55;;;;;;;4.40;1.00;;;16.80;99.90;;;;;;5053677;28;20454;-77
2023/10/08 12:55:23;;;;;;;3.30;0.80;;;16.90;99.90;;;;;;5058753;28;20445;-77
2023/10/08 12:57:55;;;;;;;1.97;0.70;;;17.00;99.90;;;;;;5055080;28;20452;-77
2023/10/08 13:00:24;;;;;;;1.97;0.80;;;17.10;99.90;;;;;;5055763;28;20469;-77
2023/10/08 13:02:53;;;;;;;3.83;0.83;;;17.10;99.90;;;;;;5057711;28;20452;-77
2023/10/08 13:05:27;;;;;;;3.20;1.10;;;17.20;99.90;;;;;;5061323;28;20458;-77
2023/10/08 13:07:55;;;;;;;3.00;0.97;;;17.10;99.90;;;;;;5054061;28;20493;-78
2023/10/08 13:10:23;;;;;;;2.53;0.80;;;17.20;99.90;;;;;;5058874;28;20450;-78
2023/10/08 13:12:50;;;;;;;1.80;0.77;;;17.30;99.90;;;;;;5059822;28;20499;-77
2023/10/08 13:15:17;;;;;;;2.50;0.70;;;17.20;99.90;;;;;;5059051;28;20443;-77
2023/10/08 13:17:45;;;;;;;2.30;0.87;;;17.20;99.90;;;;;;5058805;28;20450;-78
2023/10/08 13:20:12;;;;;;;2.37;0.87;;;17.30;99.90;;;;;;5060476;28;20900;-77
2023/10/08 13:22:43;;;;;;;2.57;1.00;;;17.30;99.90;;;;;;5059676;28;20947;-78